createdAt,value
2022-09-05T00:04:51.321Z,4.70
2022-09-05T00:10:22.819Z,5.65
2022-09-05T00:15:58.652Z,4.95
2022-09-05T00:24:26.448Z,5.47
2022-09-05T00:27:25.346Z,5.38
2022-09-05T00:33:17.181Z,5.40
2022-09-05T00:38:42.889Z,4.78
2022-09-05T00:44:07.352Z,4.80
2022-09-05T00:49:36.442Z,5.00
2022-09-05T00:55:12.069Z,4.95
2022-09-05T01:00:49.819Z,4.57
2022-09-05T01:06:27.766Z,5.20
2022-09-05T01:12:01.922Z,5.30
2022-09-05T01:17:48.410Z,5.38
2022-09-05T01:23:36.512Z,5.28
2022-09-05T01:29:16.800Z,5.78
2022-09-05T01:34:55.599Z,5.50
2022-09-05T01:40:25.431Z,4.90
2022-09-05T01:45:53.675Z,5.25
2022-09-05T01:51:28.621Z,5.90
2022-09-05T01:57:01.387Z,5.50
2022-09-05T02:02:38.356Z,5.63
2022-09-05T02:08:27.213Z,5.60
2022-09-05T02:13:59.901Z,5.75
2022-09-05T02:19:26.800Z,6.45
2022-09-05T02:24:59.813Z,6.93
2022-09-05T02:30:47.418Z,6.10
2022-09-05T02:36:33.279Z,6.15
2022-09-05T02:45:13.701Z,5.25
2022-09-05T02:47:50.057Z,6.30
2022-09-05T02:57:42.878Z,6.05
2022-09-05T02:59:09.914Z,6.38
2022-09-05T03:04:40.370Z,6.82
2022-09-05T03:10:18.198Z,5.20
2022-09-05T03:16:28.840Z,6.40
2022-09-05T03:22:17.981Z,6.07
2022-09-05T03:28:19.210Z,7.53
2022-09-05T03:34:05.880Z,6.47
2022-09-05T03:40:16.238Z,7.05
2022-09-05T03:46:03.936Z,7.05
2022-09-05T03:57:05.818Z,6.63
2022-09-05T03:57:41.427Z,6.07
2022-09-05T04:08:06.124Z,6.97
2022-09-05T04:09:06.781Z,7.20
2022-09-05T04:14:42.028Z,7.25
2022-09-05T04:20:11.914Z,6.80
2022-09-05T04:25:46.721Z,6.78
2022-09-05T04:31:19.188Z,7.03
2022-09-05T04:36:43.051Z,6.70
2022-09-05T04:42:19.614Z,8.35
2022-09-05T04:47:47.911Z,6.72
2022-09-05T04:53:25.236Z,7.35
2022-09-05T05:00:08.947Z,6.88
2022-09-05T05:06:08.226Z,6.90
2022-09-05T05:13:26.566Z,6.55
2022-09-05T05:18:14.834Z,7.22
2022-09-05T05:21:57.002Z,7.05
2022-09-05T05:27:25.223Z,7.55
2022-09-05T05:32:52.524Z,8.23
2022-09-05T05:38:31.108Z,7.95
2022-09-05T05:43:55.087Z,7.03
2022-09-05T05:49:43.793Z,8.20
2022-09-05T05:55:50.530Z,7.22
2022-09-05T06:01:38.122Z,7.65
2022-09-05T06:07:10.692Z,8.07
2022-09-05T06:15:09.055Z,8.55
2022-09-05T06:19:28.869Z,8.88
2022-09-05T06:25:57.275Z,8.93
2022-09-05T06:31:43.485Z,8.80
2022-09-05T06:37:18.753Z,7.60
2022-09-05T06:43:01.084Z,6.40
2022-09-05T06:48:44.480Z,7.25
2022-09-05T06:54:39.990Z,7.00
2022-09-05T07:00:22.658Z,5.95
2022-09-05T07:05:55.663Z,5.97
2022-09-05T07:11:23.130Z,5.63
2022-09-05T07:16:50.880Z,5.80
2022-09-05T07:22:46.530Z,5.35
2022-09-05T07:28:27.121Z,5.30
2022-09-05T07:34:06.132Z,6.40
2022-09-05T07:39:48.983Z,5.03
2022-09-05T07:45:17.755Z,5.07
2022-09-05T07:54:08.964Z,5.43
2022-09-05T07:57:22.229Z,5.65
2022-09-05T08:02:32.899Z,5.13
2022-09-05T08:07:57.155Z,4.75
2022-09-05T08:13:23.406Z,4.95
2022-09-05T08:19:08.995Z,4.40
2022-09-05T08:24:37.542Z,4.13
2022-09-05T08:30:26.262Z,8.38
2022-09-05T08:35:53.292Z,4.82
2022-09-05T08:41:51.233Z,4.82
2022-09-05T08:47:21.818Z,4.80
2022-09-05T08:58:34.295Z,5.65
2022-09-05T09:09:46.352Z,4.18
2022-09-05T09:15:14.669Z,3.90
2022-09-05T09:20:45.900Z,3.78
2022-09-05T09:26:15.853Z,3.58
2022-09-05T09:32:06.641Z,3.65
2022-09-05T09:38:04.626Z,3.40
2022-09-05T09:43:29.161Z,3.35
2022-09-05T09:49:22.645Z,3.20
2022-09-05T09:55:39.093Z,3.00
2022-09-05T10:01:36.343Z,2.92
2022-09-05T10:10:54.669Z,2.60
2022-09-05T10:13:28.784Z,3.33
2022-09-05T10:19:03.589Z,3.35
2022-09-05T10:25:19.182Z,2.95
2022-09-05T10:32:32.633Z,2.92
2022-09-05T10:36:32.393Z,3.30
2022-09-05T10:42:03.117Z,3.00
2022-09-05T10:47:37.260Z,3.70
2022-09-05T10:53:20.128Z,2.45
2022-09-05T11:02:15.749Z,2.78
2022-09-05T11:04:50.361Z,2.60
2022-09-05T11:10:19.319Z,3.25
2022-09-05T11:16:03.508Z,3.42
2022-09-05T11:21:42.486Z,3.20
2022-09-05T11:27:23.820Z,2.42
2022-09-05T11:38:10.464Z,2.95
2022-09-05T11:39:53.715Z,2.40
2022-09-05T11:45:18.323Z,2.67
2022-09-05T11:51:05.463Z,2.60
2022-09-05T11:57:20.117Z,2.90
2022-09-05T12:03:57.357Z,2.90
2022-09-05T12:09:29.941Z,2.58
2022-09-05T12:15:13.700Z,2.53
2022-09-05T12:20:49.378Z,2.50
2022-09-05T12:27:44.957Z,2.40
2022-09-05T12:34:23.493Z,2.25
2022-09-05T12:40:40.243Z,2.63
2022-09-05T12:44:38.306Z,2.65
2022-09-05T12:49:35.071Z,2.45
2022-09-05T12:55:03.774Z,2.50
2022-09-05T13:03:14.237Z,3.03
2022-09-05T13:06:22.950Z,2.83
2022-09-05T13:15:00.898Z,2.17
2022-09-05T13:17:51.605Z,2.80
2022-09-05T13:23:21.795Z,2.40
2022-09-05T13:29:09.992Z,2.53
2022-09-05T13:38:19.876Z,2.20
2022-09-05T13:40:23.092Z,2.47
2022-09-05T13:46:10.905Z,2.30
2022-09-05T13:51:39.356Z,2.40
2022-09-05T13:57:32.476Z,3.13
2022-09-05T14:03:38.155Z,2.70
2022-09-05T14:15:11.312Z,2.92
2022-09-05T14:20:59.699Z,2.22
2022-09-05T14:26:30.033Z,2.78
2022-09-05T14:37:41.743Z,2.55
2022-09-05T14:37:44.630Z,2.58
2022-09-05T14:43:07.624Z,2.55
2022-09-05T14:48:33.196Z,2.85
2022-09-05T15:02:42.723Z,2.45
2022-09-05T15:04:47.443Z,2.30
2022-09-05T15:12:14.426Z,2.20
2022-09-05T15:15:38.546Z,1.98
2022-09-05T15:20:44.727Z,1.80
2022-09-05T15:25:52.237Z,2.00
2022-09-05T15:30:58.079Z,2.15
2022-09-05T15:36:05.285Z,2.58
2022-09-05T15:41:19.953Z,2.78
2022-09-05T15:46:34.327Z,1.85
2022-09-05T15:51:47.994Z,2.35
2022-09-05T15:56:54.917Z,2.45
2022-09-05T16:02:00.912Z,2.30
2022-09-05T16:10:34.786Z,2.60
2022-09-05T16:12:34.414Z,3.42
2022-09-05T16:23:11.538Z,2.35
2022-09-05T16:23:39.347Z,2.40
2022-09-05T16:28:41.520Z,2.97
2022-09-05T16:33:47.175Z,2.25
2022-09-05T16:38:53.763Z,4.22
2022-09-05T16:44:04.661Z,2.50
2022-09-05T16:49:15.086Z,2.60
2022-09-05T16:54:25.552Z,2.70
2022-09-05T16:59:33.088Z,2.83
2022-09-05T17:05:06.239Z,2.17
2022-09-05T17:10:12.620Z,3.00
2022-09-05T17:15:21.700Z,2.78
2022-09-05T17:20:28.977Z,2.78
2022-09-05T17:29:26.431Z,2.53
2022-09-05T17:36:41.303Z,3.10
2022-09-05T17:42:03.375Z,3.58
2022-09-05T17:47:15.320Z,3.42
2022-09-05T17:52:22.902Z,3.65
2022-09-05T17:57:41.367Z,3.53
2022-09-05T18:02:56.179Z,3.20
2022-09-05T18:08:00.290Z,3.20
2022-09-05T18:13:32.244Z,3.03
2022-09-05T18:19:33.703Z,3.35
2022-09-05T18:24:07.857Z,2.92
2022-09-05T18:29:28.708Z,3.40
2022-09-05T18:35:27.989Z,3.33
2022-09-05T18:40:53.351Z,3.15
2022-09-05T18:46:08.160Z,4.22
2022-09-05T18:51:23.025Z,3.63
2022-09-05T18:56:32.803Z,3.20
2022-09-05T19:01:40.661Z,3.80
2022-09-05T19:06:49.233Z,3.83
2022-09-05T19:11:57.981Z,3.08
2022-09-05T19:17:27.407Z,3.95
2022-09-05T19:23:08.777Z,3.30
2022-09-05T19:32:37.480Z,3.70
2022-09-05T19:37:09.603Z,4.45
2022-09-05T19:40:32.141Z,4.78
2022-09-05T19:47:35.723Z,3.75
2022-09-05T19:50:05.730Z,3.92
2022-09-05T19:55:22.314Z,3.90
2022-09-05T20:00:28.145Z,4.28
2022-09-05T20:05:32.659Z,3.65
2022-09-05T20:10:37.397Z,4.25
2022-09-05T20:15:42.062Z,4.18
2022-09-05T20:20:52.562Z,3.78
2022-09-05T20:25:58.740Z,4.30
2022-09-05T20:31:08.448Z,3.60
2022-09-05T20:43:11.113Z,3.65
2022-09-05T20:43:23.649Z,3.92
2022-09-05T20:51:41.065Z,5.65
2022-09-05T20:54:22.376Z,4.22
2022-09-05T20:58:10.653Z,4.13
2022-09-05T21:03:27.315Z,3.53
2022-09-05T21:08:35.189Z,3.80
2022-09-05T21:13:52.218Z,4.03
2022-09-05T21:18:56.350Z,3.65
2022-09-05T21:24:16.176Z,3.28
2022-09-05T21:29:32.676Z,4.13
2022-09-05T21:34:44.814Z,4.82
2022-09-05T21:40:00.541Z,4.32
2022-09-05T21:47:40.211Z,4.15
2022-09-05T21:50:33.929Z,3.42
2022-09-05T21:59:33.301Z,3.67
2022-09-05T22:01:08.531Z,3.80
2022-09-05T22:06:14.116Z,3.50
2022-09-05T22:11:17.468Z,3.17
2022-09-05T22:16:25.253Z,3.15
2022-09-05T22:21:34.685Z,3.25
2022-09-05T22:27:06.253Z,3.75
2022-09-05T22:32:08.780Z,3.05
2022-09-05T22:37:16.297Z,3.50
2022-09-05T22:42:19.579Z,3.08
2022-09-05T22:47:26.088Z,2.30
2022-09-05T22:52:29.363Z,2.53
2022-09-05T22:57:32.951Z,2.30
2022-09-05T23:02:39.743Z,3.40
2022-09-05T23:07:43.106Z,2.95
2022-09-05T23:12:46.577Z,2.85
2022-09-05T23:17:56.066Z,2.92
2022-09-05T23:23:04.145Z,2.67
2022-09-05T23:28:09.031Z,2.33
2022-09-05T23:33:13.717Z,2.30
2022-09-05T23:38:17.036Z,2.50
2022-09-05T23:43:20.393Z,2.45
2022-09-05T23:48:25.605Z,2.42
2022-09-05T23:53:29.034Z,1.80
2022-09-05T23:58:32.710Z,2.22
